createdAt,value
2019-03-15T00:01:12.764Z,2.06
2019-03-15T00:03:39.824Z,2.03
2019-03-15T00:06:06.899Z,1.94
2019-03-15T00:08:33.963Z,1.87
2019-03-15T00:11:01.017Z,1.86
2019-03-15T00:13:28.100Z,1.86
2019-03-15T00:15:55.176Z,1.88
2019-03-15T00:18:22.276Z,1.91
2019-03-15T00:20:49.375Z,1.93
2019-03-15T00:23:16.430Z,1.89
2019-03-15T00:25:43.507Z,1.84
2019-03-15T00:28:10.557Z,1.79
2019-03-15T00:30:37.608Z,1.78
2019-03-15T00:33:04.675Z,1.74
2019-03-15T00:35:31.726Z,1.73
2019-03-15T00:37:58.783Z,1.75
2019-03-15T00:40:25.846Z,1.74
2019-03-15T00:42:52.902Z,1.71
2019-03-15T00:45:19.983Z,1.64
2019-03-15T00:47:47.054Z,1.60
2019-03-15T00:50:14.109Z,1.58
2019-03-15T00:52:41.173Z,1.60
2019-03-15T00:55:08.229Z,1.63
2019-03-15T00:57:35.302Z,1.64
2019-03-15T01:00:02.886Z,1.66
2019-03-15T01:02:29.953Z,1.69
2019-03-15T01:04:57.003Z,1.70
2019-03-15T01:07:24.074Z,1.72
2019-03-15T01:09:51.156Z,1.75
2019-03-15T01:12:18.207Z,1.75
2019-03-15T01:14:45.263Z,1.72
2019-03-15T01:17:12.325Z,1.60
2019-03-15T01:19:39.436Z,1.48
2019-03-15T01:22:06.498Z,1.41
2019-03-15T01:24:33.568Z,1.41
2019-03-15T01:27:00.687Z,1.43
2019-03-15T01:29:27.763Z,1.48
2019-03-15T01:31:54.822Z,1.49
2019-03-15T01:34:21.885Z,1.50
2019-03-15T01:36:48.941Z,1.49
2019-03-15T01:39:16.001Z,1.43
2019-03-15T01:41:43.093Z,1.42
2019-03-15T01:44:10.153Z,1.42
2019-03-15T01:46:37.223Z,1.39
2019-03-15T01:49:04.299Z,1.42
2019-03-15T01:51:31.362Z,1.41
2019-03-15T01:53:58.430Z,1.37
2019-03-15T01:56:25.496Z,1.33
2019-03-15T01:58:52.557Z,1.31
2019-03-15T02:01:19.624Z,1.30
2019-03-15T02:03:46.688Z,1.29
2019-03-15T02:06:13.763Z,1.28
2019-03-15T02:08:40.825Z,1.28
2019-03-15T02:11:07.887Z,1.27
2019-03-15T02:13:34.988Z,1.19
2019-03-15T02:16:02.059Z,1.17
2019-03-15T02:18:29.145Z,1.11
2019-03-15T02:20:56.228Z,1.03
2019-03-15T02:23:23.615Z,0.98
2019-03-15T02:25:50.783Z,0.95
2019-03-15T02:28:17.844Z,0.96
2019-03-15T02:30:44.928Z,0.98
2019-03-15T02:33:11.976Z,0.95
2019-03-15T02:35:39.042Z,0.94
2019-03-15T02:38:06.103Z,0.93
2019-03-15T02:40:33.169Z,0.92
2019-03-15T02:43:00.237Z,0.89
2019-03-15T02:45:27.331Z,0.81
2019-03-15T02:47:54.389Z,0.74
2019-03-15T02:50:21.448Z,0.71
2019-03-15T02:52:48.549Z,0.67
2019-03-15T02:55:15.624Z,0.64
2019-03-15T02:57:42.669Z,0.66
2019-03-15T03:00:10.623Z,0.68
2019-03-15T03:02:37.679Z,0.71
2019-03-15T03:05:04.818Z,0.76
2019-03-15T03:07:31.895Z,0.81
2019-03-15T03:09:59.300Z,0.82
2019-03-15T03:12:26.414Z,0.81
2019-03-15T03:14:53.494Z,0.78
2019-03-15T03:17:20.568Z,0.78
2019-03-15T03:19:47.610Z,0.77
2019-03-15T03:22:14.722Z,0.75
2019-03-15T03:24:41.793Z,0.76
2019-03-15T03:27:08.845Z,0.80
2019-03-15T03:29:35.918Z,0.83
2019-03-15T03:32:03.003Z,0.85
2019-03-15T03:34:30.061Z,0.86
2019-03-15T03:36:58.200Z,0.92
2019-03-15T03:39:25.386Z,0.99
2019-03-15T03:41:52.452Z,1.03
2019-03-15T03:44:19.518Z,1.07
2019-03-15T03:46:46.559Z,1.10
2019-03-15T03:49:13.627Z,1.11
2019-03-15T03:51:40.692Z,1.13
2019-03-15T03:54:07.746Z,1.17
2019-03-15T03:56:34.803Z,1.19
2019-03-15T03:59:01.883Z,1.18
2019-03-15T04:01:29.040Z,1.15
2019-03-15T04:03:56.104Z,1.18
2019-03-15T04:06:23.269Z,1.21
2019-03-15T04:08:50.324Z,1.24
2019-03-15T04:11:17.387Z,1.26
2019-03-15T04:13:44.439Z,1.28
2019-03-15T04:16:11.496Z,1.32
2019-03-15T04:18:38.558Z,1.35
2019-03-15T04:21:05.626Z,1.37
2019-03-15T04:23:32.727Z,1.38
2019-03-15T04:26:01.183Z,1.42
2019-03-15T04:28:28.235Z,1.43
2019-03-15T04:30:55.306Z,1.46
2019-03-15T04:33:22.362Z,1.46
2019-03-15T04:35:49.437Z,1.47
2019-03-15T04:38:16.487Z,1.49
2019-03-15T04:40:43.560Z,1.49
2019-03-15T04:43:10.627Z,1.44
2019-03-15T04:45:37.727Z,1.43
2019-03-15T04:48:04.784Z,1.43
2019-03-15T04:50:31.850Z,1.43
2019-03-15T04:52:58.926Z,1.46
2019-03-15T04:55:25.979Z,1.47
2019-03-15T04:57:53.079Z,1.46
2019-03-15T05:00:20.172Z,1.47
2019-03-15T05:02:47.281Z,1.48
2019-03-15T05:05:14.296Z,1.48
2019-03-15T05:07:41.363Z,1.49
2019-03-15T05:10:08.540Z,1.48
2019-03-15T05:12:35.595Z,1.48
2019-03-15T05:15:02.819Z,1.49
2019-03-15T05:17:29.881Z,1.48
2019-03-15T05:19:57.007Z,1.46
2019-03-15T05:22:24.071Z,1.44
2019-03-15T05:24:51.131Z,1.43
2019-03-15T05:27:18.192Z,1.42
2019-03-15T05:29:45.259Z,1.46
2019-03-15T05:32:12.318Z,1.43
2019-03-15T05:34:39.402Z,1.42
2019-03-15T05:37:06.218Z,1.41
2019-03-15T05:39:33.295Z,1.41
2019-03-15T05:42:00.376Z,1.42
2019-03-15T05:44:27.431Z,1.45
2019-03-15T05:46:54.598Z,1.47
2019-03-15T05:49:21.671Z,1.47
2019-03-15T05:51:48.726Z,1.49
2019-03-15T05:54:15.786Z,1.50
2019-03-15T05:56:42.869Z,1.52
2019-03-15T05:59:09.963Z,1.54
2019-03-15T06:01:37.036Z,1.57
2019-03-15T06:04:04.217Z,1.58
2019-03-15T06:06:31.296Z,1.60
2019-03-15T06:08:58.355Z,1.63
2019-03-15T06:11:25.426Z,1.65
2019-03-15T06:13:52.521Z,1.66
2019-03-15T06:16:19.586Z,1.65
2019-03-15T06:18:46.710Z,1.63
2019-03-15T06:21:13.796Z,1.61
2019-03-15T06:23:40.862Z,1.61
2019-03-15T06:26:07.942Z,1.64
2019-03-15T06:28:35.007Z,1.67
2019-03-15T06:31:02.075Z,1.69
2019-03-15T06:33:29.149Z,1.70
2019-03-15T06:35:56.246Z,1.69
2019-03-15T06:38:23.307Z,1.71
2019-03-15T06:40:50.380Z,1.72
2019-03-15T06:43:17.449Z,1.75
2019-03-15T06:45:44.562Z,1.79
2019-03-15T06:48:11.615Z,1.83
2019-03-15T06:50:38.684Z,1.83
2019-03-15T06:53:05.747Z,1.85
2019-03-15T06:55:32.822Z,1.88
2019-03-15T06:58:00.025Z,1.89
2019-03-15T07:00:27.150Z,1.90
2019-03-15T07:02:54.268Z,1.90
2019-03-15T07:05:21.331Z,1.93
2019-03-15T07:07:48.488Z,1.96
2019-03-15T07:10:15.549Z,1.99
2019-03-15T07:12:42.616Z,2.03
2019-03-15T07:15:10.328Z,2.07
2019-03-15T07:17:37.394Z,2.09
2019-03-15T07:20:05.731Z,2.09
2019-03-15T07:22:32.799Z,2.11
2019-03-15T07:24:59.878Z,2.12
2019-03-15T07:27:26.941Z,2.15
2019-03-15T07:29:54.028Z,2.16
2019-03-15T07:32:21.116Z,2.14
2019-03-15T07:34:48.200Z,2.17
2019-03-15T07:37:15.301Z,2.21
2019-03-15T07:39:42.383Z,2.24
2019-03-15T07:42:09.451Z,2.27
2019-03-15T07:44:36.524Z,2.33
2019-03-15T07:47:03.648Z,2.37
2019-03-15T07:49:30.695Z,2.41
2019-03-15T07:51:57.764Z,2.45
2019-03-15T07:54:37.046Z,2.51
2019-03-15T07:56:53.806Z,2.53
2019-03-15T07:59:20.999Z,2.56
2019-03-15T08:01:48.081Z,2.59
2019-03-15T08:04:17.455Z,2.64
2019-03-15T08:06:47.122Z,2.67
2019-03-15T08:09:14.193Z,2.71
2019-03-15T08:11:41.275Z,2.77
2019-03-15T08:14:08.435Z,2.81
2019-03-15T08:16:35.526Z,2.84
2019-03-15T08:19:05.042Z,2.89
2019-03-15T08:21:31.608Z,2.92
2019-03-15T08:23:58.701Z,2.93
2019-03-15T08:26:25.750Z,2.97
2019-03-15T08:28:52.840Z,3.00
2019-03-15T08:31:23.100Z,3.02
2019-03-15T08:33:48.856Z,3.05
2019-03-15T08:36:15.956Z,3.08
2019-03-15T08:38:47.721Z,3.11
2019-03-15T08:41:12.087Z,3.08
2019-03-15T08:43:39.230Z,3.02
2019-03-15T08:46:06.298Z,3.05
2019-03-15T08:48:33.361Z,3.13
2019-03-15T08:51:02.267Z,3.20
2019-03-15T08:53:29.302Z,3.27
2019-03-15T08:55:56.374Z,3.28
2019-03-15T08:58:23.462Z,3.28
2019-03-15T09:00:50.555Z,3.23
2019-03-15T09:03:27.184Z,3.21
2019-03-15T09:05:46.622Z,3.27
2019-03-15T09:08:13.854Z,3.30
2019-03-15T09:10:40.923Z,3.35
2019-03-15T09:13:07.983Z,3.36
2019-03-15T09:15:35.051Z,3.33
2019-03-15T09:18:02.115Z,3.33
2019-03-15T09:20:30.424Z,3.39
2019-03-15T09:22:57.760Z,3.43
2019-03-15T09:25:24.812Z,3.47
2019-03-15T09:27:51.869Z,3.50
2019-03-15T09:30:23.523Z,3.54
2019-03-15T09:32:47.988Z,3.54
2019-03-15T09:35:15.062Z,3.63
2019-03-15T09:37:42.296Z,3.61
2019-03-15T09:40:09.683Z,3.67
2019-03-15T09:42:36.753Z,3.66
2019-03-15T09:45:04.216Z,3.70
2019-03-15T09:47:31.296Z,3.74
2019-03-15T09:49:58.359Z,3.79
2019-03-15T09:52:25.436Z,3.84
2019-03-15T09:54:52.532Z,3.82
2019-03-15T09:57:19.597Z,3.88
2019-03-15T09:59:46.674Z,3.93
2019-03-15T10:02:13.750Z,3.97
2019-03-15T10:04:40.862Z,4.06
2019-03-15T10:07:08.022Z,4.12
2019-03-15T10:09:45.295Z,4.17
2019-03-15T10:12:04.148Z,4.20
2019-03-15T10:14:31.207Z,4.24
2019-03-15T10:16:58.271Z,4.24
2019-03-15T10:19:25.344Z,4.25
2019-03-15T10:21:52.415Z,4.32
2019-03-15T10:24:19.480Z,4.34
2019-03-15T10:26:46.536Z,4.31
2019-03-15T10:29:15.671Z,4.33
2019-03-15T10:31:42.599Z,4.35
2019-03-15T10:34:09.686Z,4.33
2019-03-15T10:36:36.734Z,4.37
2019-03-15T10:39:05.172Z,4.45
2019-03-15T10:41:32.237Z,4.46
2019-03-15T10:43:59.321Z,4.50
2019-03-15T10:46:26.391Z,4.54
2019-03-15T10:48:53.511Z,4.58
2019-03-15T10:51:20.566Z,4.62
2019-03-15T10:53:47.631Z,4.63
2019-03-15T10:56:14.695Z,4.59
2019-03-15T10:58:41.759Z,4.58
2019-03-15T11:01:08.826Z,4.54
2019-03-15T11:03:35.889Z,4.53
2019-03-15T11:06:03.168Z,4.51
2019-03-15T11:08:30.229Z,4.45
2019-03-15T11:10:57.303Z,4.38
2019-03-15T11:13:24.407Z,4.42
2019-03-15T11:15:51.475Z,4.42
2019-03-15T11:18:18.591Z,4.44
2019-03-15T11:20:45.653Z,4.46
2019-03-15T11:23:12.720Z,4.49
2019-03-15T11:25:39.784Z,4.46
2019-03-15T11:28:06.852Z,4.48
2019-03-15T11:30:33.917Z,4.50
2019-03-15T11:33:00.985Z,4.50
2019-03-15T11:35:28.045Z,4.43
2019-03-15T11:37:55.109Z,4.37
2019-03-15T11:40:22.164Z,4.41
2019-03-15T11:42:49.222Z,4.45
2019-03-15T11:45:16.291Z,4.41
2019-03-15T11:48:02.657Z,4.43
2019-03-15T11:50:12.362Z,4.37
2019-03-15T11:52:39.411Z,4.39
2019-03-15T11:55:07.132Z,4.37
2019-03-15T11:57:34.191Z,4.38
2019-03-15T12:00:01.264Z,4.43
2019-03-15T12:02:28.323Z,4.42
2019-03-15T12:04:55.379Z,4.47
2019-03-15T12:07:22.459Z,4.52
2019-03-15T12:09:49.539Z,4.47
2019-03-15T12:12:16.621Z,4.52
2019-03-15T12:14:43.686Z,4.55
2019-03-15T12:17:10.829Z,4.57
2019-03-15T12:19:37.905Z,4.59
2019-03-15T12:22:06.551Z,4.62
2019-03-15T12:24:33.852Z,4.65
2019-03-15T12:27:00.956Z,4.66
2019-03-15T12:29:28.035Z,4.63
2019-03-15T12:31:55.104Z,4.56
2019-03-15T12:34:22.201Z,4.52
2019-03-15T12:36:49.254Z,4.47
2019-03-15T12:39:16.373Z,4.49
2019-03-15T12:41:43.462Z,4.53
2019-03-15T12:44:10.750Z,4.57
2019-03-15T12:46:37.908Z,4.61
2019-03-15T12:49:04.967Z,4.62
2019-03-15T12:51:32.592Z,4.63
2019-03-15T12:53:59.807Z,4.65
2019-03-15T12:56:26.868Z,4.65
2019-03-15T12:58:53.925Z,4.64
2019-03-15T13:01:20.998Z,4.63
2019-03-15T13:03:48.141Z,4.59
2019-03-15T13:06:15.235Z,4.56
2019-03-15T13:08:42.322Z,4.56
2019-03-15T13:11:09.400Z,4.50
2019-03-15T13:13:36.469Z,4.50
2019-03-15T13:16:03.565Z,4.52
2019-03-15T13:18:30.631Z,4.50
2019-03-15T13:20:57.693Z,4.43
2019-03-15T13:23:24.766Z,4.41
2019-03-15T13:25:51.860Z,4.33
2019-03-15T13:28:20.828Z,4.36
2019-03-15T13:30:47.885Z,4.36
2019-03-15T13:33:20.413Z,4.31
2019-03-15T13:35:43.947Z,4.18
2019-03-15T13:38:11.004Z,4.08
2019-03-15T13:40:38.066Z,4.04
2019-03-15T13:43:05.137Z,3.98
2019-03-15T13:45:32.191Z,3.91
2019-03-15T13:47:59.270Z,3.92
2019-03-15T13:50:26.333Z,3.95
2019-03-15T13:52:53.391Z,3.95
2019-03-15T13:55:20.457Z,3.91
2019-03-15T13:57:47.627Z,3.88
2019-03-15T14:00:15.020Z,3.82
2019-03-15T14:02:42.096Z,3.76
2019-03-15T14:05:09.273Z,3.72
2019-03-15T14:07:36.380Z,3.64
2019-03-15T14:10:04.198Z,3.70
2019-03-15T14:12:31.488Z,3.71
2019-03-15T14:14:58.554Z,3.75
2019-03-15T14:17:25.614Z,3.79
2019-03-15T14:19:52.703Z,3.85
2019-03-15T14:22:19.789Z,3.89
2019-03-15T14:24:46.825Z,3.93
2019-03-15T14:27:13.921Z,3.92
2019-03-15T14:29:40.967Z,3.91
2019-03-15T14:32:08.052Z,3.92
2019-03-15T14:34:35.115Z,3.95
2019-03-15T14:37:02.271Z,3.97
2019-03-15T14:39:29.297Z,3.96
2019-03-15T14:41:56.409Z,3.97
2019-03-15T14:44:23.500Z,3.94
2019-03-15T14:46:50.526Z,3.87
2019-03-15T14:49:17.603Z,3.78
2019-03-15T14:51:44.741Z,3.77
2019-03-15T14:54:11.819Z,3.75
2019-03-15T14:56:38.880Z,3.82
2019-03-15T14:59:05.949Z,3.86
2019-03-15T15:01:33.044Z,3.89
2019-03-15T15:04:00.113Z,3.88
2019-03-15T15:06:27.220Z,3.89
2019-03-15T15:08:54.335Z,3.92
2019-03-15T15:11:21.408Z,3.94
2019-03-15T15:13:48.507Z,3.99
2019-03-15T15:16:15.568Z,4.01
2019-03-15T15:18:42.625Z,4.02
2019-03-15T15:21:09.715Z,4.02
2019-03-15T15:23:36.771Z,3.94
2019-03-15T15:26:03.993Z,3.94
2019-03-15T15:28:31.065Z,3.97
2019-03-15T15:30:58.133Z,3.99
2019-03-15T15:33:25.211Z,3.95
2019-03-15T15:35:52.308Z,3.94
2019-03-15T15:38:19.409Z,3.91
2019-03-15T15:40:46.483Z,3.90
2019-03-15T15:43:13.543Z,3.93
2019-03-15T15:45:40.636Z,3.93
2019-03-15T15:48:07.715Z,3.87
2019-03-15T15:50:34.771Z,3.85
2019-03-15T15:53:01.831Z,3.86
2019-03-15T15:55:28.907Z,3.86
2019-03-15T15:57:55.980Z,3.90
2019-03-15T16:00:23.065Z,3.92
2019-03-15T16:02:50.140Z,3.96
2019-03-15T16:05:17.265Z,3.99
2019-03-15T16:07:44.332Z,4.00
2019-03-15T16:10:11.414Z,4.03
2019-03-15T16:12:38.576Z,4.05
2019-03-15T16:15:06.234Z,4.05
2019-03-15T16:17:33.295Z,4.05
2019-03-15T16:20:00.438Z,4.04
2019-03-15T16:22:27.539Z,4.02
2019-03-15T16:24:54.724Z,4.03
2019-03-15T16:27:21.786Z,4.00
2019-03-15T16:29:48.900Z,3.98
2019-03-15T16:32:16.005Z,3.98
2019-03-15T16:34:43.048Z,4.00
2019-03-15T16:37:10.125Z,3.98
2019-03-15T16:39:37.183Z,3.98
2019-03-15T16:42:04.240Z,3.97
2019-03-15T16:44:31.383Z,3.97
2019-03-15T16:46:58.449Z,3.95
2019-03-15T16:49:25.515Z,3.94
2019-03-15T16:51:52.587Z,3.94
2019-03-15T16:54:19.647Z,3.94
2019-03-15T16:56:46.754Z,3.94
2019-03-15T16:59:13.832Z,3.94
2019-03-15T17:01:40.879Z,3.93
2019-03-15T17:04:07.941Z,3.91
2019-03-15T17:06:35.011Z,3.92
2019-03-15T17:09:02.094Z,3.88
2019-03-15T17:11:29.179Z,3.86
2019-03-15T17:13:56.230Z,3.87
2019-03-15T17:16:23.290Z,3.84
2019-03-15T17:18:50.360Z,3.83
2019-03-15T17:21:17.428Z,3.83
2019-03-15T17:23:44.519Z,3.83
2019-03-15T17:26:11.595Z,3.76
2019-03-15T17:28:38.669Z,3.69
2019-03-15T17:31:10.231Z,3.68
2019-03-15T17:33:34.710Z,3.67
2019-03-15T17:36:01.769Z,3.62
2019-03-15T17:38:28.835Z,3.59
2019-03-15T17:40:55.899Z,3.56
2019-03-15T17:43:22.952Z,3.57
2019-03-15T17:45:50.120Z,3.58
2019-03-15T17:48:17.198Z,3.59
2019-03-15T17:50:44.287Z,3.59
2019-03-15T17:53:11.463Z,3.59
2019-03-15T17:55:38.530Z,3.59
2019-03-15T17:58:05.604Z,3.57
2019-03-15T18:00:36.257Z,3.57
2019-03-15T18:03:03.888Z,3.56
2019-03-15T18:05:30.947Z,3.53
2019-03-15T18:07:58.011Z,3.54
2019-03-15T18:10:25.090Z,3.52
2019-03-15T18:12:52.172Z,3.52
2019-03-15T18:15:19.263Z,3.49
2019-03-15T18:17:46.345Z,3.49
2019-03-15T18:20:13.427Z,3.51
2019-03-15T18:22:40.496Z,3.51
2019-03-15T18:25:07.700Z,3.50
2019-03-15T18:27:34.793Z,3.50
2019-03-15T18:30:01.915Z,3.48
2019-03-15T18:32:28.959Z,3.48
2019-03-15T18:34:56.078Z,3.48
2019-03-15T18:37:23.151Z,3.49
2019-03-15T18:39:50.402Z,3.49
2019-03-15T18:42:17.427Z,3.49
2019-03-15T18:44:44.497Z,3.50
2019-03-15T18:47:11.634Z,3.48
2019-03-15T18:49:38.744Z,3.49
2019-03-15T18:52:05.817Z,3.48
2019-03-15T18:54:32.886Z,3.47
2019-03-15T18:56:59.939Z,3.47
2019-03-15T18:59:39.190Z,3.47
2019-03-15T19:01:55.975Z,3.49
2019-03-15T19:04:23.060Z,3.48
2019-03-15T19:06:50.126Z,3.49
2019-03-15T19:09:17.222Z,3.49
2019-03-15T19:11:44.303Z,3.49
2019-03-15T19:14:11.400Z,3.50
2019-03-15T19:16:38.461Z,3.50
2019-03-15T19:19:05.543Z,3.50
2019-03-15T19:21:32.637Z,3.49
2019-03-15T19:23:59.752Z,3.49
2019-03-15T19:26:29.027Z,3.50
2019-03-15T19:28:55.845Z,3.50
2019-03-15T19:31:22.940Z,3.48
2019-03-15T19:33:50.018Z,3.48
2019-03-15T19:36:17.136Z,3.47
2019-03-15T19:38:44.227Z,3.45
2019-03-15T19:41:11.300Z,3.47
2019-03-15T19:43:38.404Z,3.48
2019-03-15T19:46:05.491Z,3.50
2019-03-15T19:48:32.586Z,3.50
2019-03-15T19:50:59.664Z,3.52
2019-03-15T19:53:26.726Z,3.53
2019-03-15T19:55:53.804Z,3.54
2019-03-15T19:58:20.886Z,3.54
2019-03-15T20:00:47.959Z,3.54
2019-03-15T20:03:15.024Z,3.52
2019-03-15T20:05:42.112Z,3.50
2019-03-15T20:08:09.253Z,3.49
2019-03-15T20:10:36.380Z,3.49
2019-03-15T20:13:03.459Z,3.50
2019-03-15T20:15:30.591Z,3.49
2019-03-15T20:17:57.654Z,3.50
2019-03-15T20:20:24.744Z,3.50
2019-03-15T20:22:51.889Z,3.51
2019-03-15T20:25:18.954Z,3.50
2019-03-15T20:27:46.036Z,3.50
2019-03-15T20:30:21.154Z,3.49
2019-03-15T20:32:43.423Z,3.49
2019-03-15T20:35:10.501Z,3.47
2019-03-15T20:37:37.646Z,3.46
2019-03-15T20:40:04.904Z,3.44
2019-03-15T20:42:31.983Z,3.45
2019-03-15T20:44:59.066Z,3.45
2019-03-15T20:47:26.146Z,3.44
2019-03-15T20:49:53.255Z,3.42
2019-03-15T20:52:20.307Z,3.41
2019-03-15T20:54:47.380Z,3.41
2019-03-15T20:57:14.490Z,3.39
2019-03-15T20:59:41.584Z,3.39
2019-03-15T21:02:08.656Z,3.40
2019-03-15T21:04:35.741Z,3.39
2019-03-15T21:07:02.824Z,3.40
2019-03-15T21:09:29.902Z,3.38
2019-03-15T21:11:56.973Z,3.37
2019-03-15T21:14:24.037Z,3.36
2019-03-15T21:16:51.116Z,3.35
2019-03-15T21:19:18.210Z,3.32
2019-03-15T21:21:45.297Z,3.31
2019-03-15T21:24:12.375Z,3.29
2019-03-15T21:26:39.479Z,3.27
2019-03-15T21:29:06.540Z,3.26
2019-03-15T21:31:33.599Z,3.24
2019-03-15T21:34:00.680Z,3.23
2019-03-15T21:36:27.746Z,3.23
2019-03-15T21:38:54.816Z,3.21
2019-03-15T21:41:21.896Z,3.23
2019-03-15T21:43:48.988Z,3.22
2019-03-15T21:46:16.063Z,3.22
2019-03-15T21:48:43.136Z,3.22
2019-03-15T21:51:10.198Z,3.19
2019-03-15T21:53:37.254Z,3.14
2019-03-15T21:56:04.333Z,3.04
2019-03-15T21:58:31.403Z,2.95
2019-03-15T22:01:02.723Z,2.84
2019-03-15T22:03:27.455Z,2.69
2019-03-15T22:05:54.555Z,2.57
2019-03-15T22:08:21.640Z,2.47
2019-03-15T22:10:48.719Z,2.37
2019-03-15T22:13:15.781Z,2.30
2019-03-15T22:15:42.849Z,2.25
2019-03-15T22:18:09.908Z,2.23
2019-03-15T22:20:37.076Z,2.22
2019-03-15T22:23:04.152Z,2.22
2019-03-15T22:25:31.246Z,2.24
2019-03-15T22:27:58.317Z,2.23
2019-03-15T22:30:25.389Z,2.22
2019-03-15T22:32:52.472Z,2.23
2019-03-15T22:35:19.559Z,2.28
2019-03-15T22:37:46.629Z,2.31
2019-03-15T22:40:13.806Z,2.30
2019-03-15T22:42:40.956Z,2.30
2019-03-15T22:45:08.086Z,2.31
2019-03-15T22:47:35.152Z,2.30
2019-03-15T22:50:02.458Z,2.30
2019-03-15T22:52:29.552Z,2.31
2019-03-15T22:54:57.062Z,2.32
2019-03-15T22:57:24.102Z,2.29
2019-03-15T22:59:53.103Z,2.31
2019-03-15T23:02:26.189Z,2.32
2019-03-15T23:04:53.268Z,2.31
2019-03-15T23:07:20.421Z,2.32
2019-03-15T23:09:47.500Z,2.33
2019-03-15T23:12:16.368Z,2.33
2019-03-15T23:14:43.425Z,2.35
2019-03-15T23:17:10.563Z,2.38
2019-03-15T23:19:37.700Z,2.37
2019-03-15T23:22:04.906Z,2.31
2019-03-15T23:24:31.972Z,2.24
2019-03-15T23:26:59.052Z,2.15
2019-03-15T23:29:26.205Z,2.07
2019-03-15T23:31:53.299Z,2.03
2019-03-15T23:34:20.398Z,2.01
2019-03-15T23:36:47.499Z,2.05
2019-03-15T23:39:14.567Z,2.08
2019-03-15T23:41:41.780Z,2.11
2019-03-15T23:44:08.883Z,2.08
2019-03-15T23:46:42.890Z,2.06
2019-03-15T23:49:10.019Z,1.98
2019-03-15T23:51:37.104Z,1.92
2019-03-15T23:54:04.198Z,1.82
2019-03-15T23:56:31.536Z,1.76
2019-03-15T23:58:58.599Z,1.72
